Time;durP1;ratioP1;P1;durP2;ratioP2;P2;SDS_P1;SDS_P2;PMS_P1;PMS_P2;Temp;Humidity;BMP_temperature;BMP_pressure;BME280_temperature;BME280_humidity;BME280_pressure;Samples;Min_cycle;Max_cycle;Signal;HPM_P1;HPM_P2
2021/10/13 15:46:29;;;;;;;;;;;7.90;99.90;;;;;;5115430;27;19923;-89
2021/10/13 15:48:55;;;;;;;;;;;7.80;99.90;;;;;;5141176;27;20343;-89
2021/10/13 15:51:20;;;;;;;;;;;7.90;99.90;;;;;;5091968;28;19962;-91
2021/10/13 15:53:46;;;;;;;;;;;8.00;99.90;;;;;;5102480;28;19913;-90
2021/10/13 15:56:11;;;;;;;;;;;8.00;99.90;;;;;;5071481;28;19909;-89
2021/10/13 16:02:50;;;;;;;;;;;8.30;99.90;;;;;;5064720;28;19928;-91
2021/10/13 16:05:16;;;;;;;;;;;8.30;99.90;;;;;;5053779;28;20276;-90
2021/10/13 16:07:41;;;;;;;;;;;8.40;99.90;;;;;;5053608;28;19920;-90
2021/10/13 16:10:08;;;;;;;;;;;8.50;99.90;;;;;;5053719;28;19909;-91
2021/10/13 16:12:33;;;;;;;;;;;8.50;99.90;;;;;;5071357;28;19948;-90
2021/10/13 16:14:59;;;;;;;;;;;8.60;99.90;;;;;;5038623;28;19963;-90
2021/10/13 16:17:25;;;;;;;;;;;8.70;99.90;;;;;;5037805;28;20358;-92
2021/10/13 16:19:50;;;;;;;;;;;8.80;99.90;;;;;;5033571;28;19913;-91
2021/10/13 16:22:18;;;;;;;;;;;8.80;99.90;;;;;;5033275;28;19945;-91
2021/10/13 16:24:44;;;;;;;;;;;8.80;99.90;;;;;;5051215;28;19909;-91
2021/10/13 16:27:12;;;;;;;;;;;8.90;99.90;;;;;;5049731;28;19913;-90
2021/10/13 16:29:39;;;;;;;;;;;8.90;99.90;;;;;;5054833;28;19920;-90
2021/10/13 16:32:04;;;;;;;;;;;8.90;99.90;;;;;;5053100;28;19931;-91
2021/10/13 16:34:30;;;;;;;;;;;9.00;99.90;;;;;;5041568;28;19913;-89
2021/10/13 16:36:56;;;;;;;;;;;9.00;99.90;;;;;;5031047;28;20282;-90
2021/10/13 16:39:22;;;;;;;;;;;9.00;99.90;;;;;;5049520;28;19929;-91
2021/10/13 16:41:48;;;;;;;;;;;9.00;99.90;;;;;;5032984;28;19913;-92
2021/10/13 16:44:14;;;;;;;;;;;9.00;99.90;;;;;;5031398;28;19927;-90
2021/10/13 16:46:45;;;;;;;;;;;9.00;99.90;;;;;;5030080;28;19913;-91
2021/10/13 16:49:11;;;;;;;;;;;9.10;99.90;;;;;;5033026;28;19909;-92
2021/10/13 16:51:37;;;;;;;;;;;9.00;99.90;;;;;;5032651;28;19913;-90
2021/10/13 16:54:03;;;;;;;;;;;9.00;99.90;;;;;;5032346;28;19916;-90
2021/10/13 16:56:28;;;;;;;;;;;9.00;99.90;;;;;;5032318;28;20330;-90
2021/10/13 16:58:54;;;;;;;;;;;9.10;99.90;;;;;;5032326;28;19910;-91
2021/10/13 17:01:19;;;;;;;;;;;9.10;99.90;;;;;;5032148;28;19931;-92
2021/10/13 17:03:45;;;;;;;;;;;9.10;99.90;;;;;;5032247;28;19909;-91
2021/10/13 17:06:11;;;;;;;;;;;9.10;99.90;;;;;;5034515;28;20285;-92
2021/10/13 17:08:36;;;;;;;;;;;9.10;99.90;;;;;;5032219;28;19909;-91
2021/10/13 17:11:02;;;;;;;;;;;9.10;99.90;;;;;;5032174;28;20477;-90
2021/10/13 17:54:57;;;;;;;;;;;8.10;99.90;;;;;;5115104;27;19919;-95
2021/10/13 17:57:26;;;;;;;;;;;8.00;99.90;;;;;;5152038;27;20261;-96
2021/10/13 18:00:01;;;;;;;;;;;8.10;99.90;;;;;;5275829;22;19925;-96
2021/10/13 18:02:45;;;;;;;;;;;8.10;99.90;;;;;;5387997;22;19912;-95
2021/10/13 18:05:12;;;;;;;;;;;8.20;99.90;;;;;;5227961;22;19927;-96
2021/10/13 18:07:39;;;;;;;;;;;8.30;99.90;;;;;;5135864;27;19912;-96
2021/10/13 18:13:06;;;;;;;;;;;8.40;99.90;;;;;;5395127;22;19925;-96
2021/10/13 18:18:19;;;;;;;;;;;8.50;99.90;;;;;;5119128;22;20337;-95
2021/10/13 18:20:45;;;;;;;;;;;8.60;99.90;;;;;;5063470;28;19925;-96
2021/10/13 18:23:11;;;;;;;;;;;8.60;99.90;;;;;;5044075;28;19913;-95
2021/10/13 18:25:37;;;;;;;;;;;8.70;99.90;;;;;;5048699;28;19935;-95
2021/10/13 18:36:39;;;;;;;;;;;8.90;99.90;;;;;;6192074;22;19919;-92
2021/10/13 18:39:05;;;;;;;;;;;8.80;99.90;;;;;;4998999;28;19969;-95
